Airfield :
LOGIN :

Register | Disclaimer

   EN    FR    IT 

 










Legend :    VFR   Marginal VFR   IFR   Intensive IFR   Very Intensive IFR
Visi :
Ceiling :
>= 8 km
>= 3000ft
5 to 8 km
1000 to 3000 ft
1500m to 5 km
500 to 1000 ft
800 to 1500m
200 to 500 ft
< 800m
< 200 ft
Symbols :   Thunderstorms  Fog  Heavy snow  Heavy precipitations  Wind > 20 kt
SIGMETs :     Misc.  Thunderstorms  Icing  Turbulence  Mountain Waves  Volcanic Ashes







- Airport Elevation : 26 ft
- IATA code : GLA
- Download approach charts


EGPF - Glasgow

CURRENT METAR :
  • 221220Z AUTO 29011KT 250V330 9999 NCD 17/08 Q1031

EXPIRED METARs :
  • 221150Z AUTO 28010KT 240V320 9999 NCD 16/08 Q1032
  • 221120Z AUTO 29010KT 9999 NCD 15/07 Q1032
  • 221050Z AUTO 29011KT 9999 NCD 15/07 Q1032
  • 221020Z AUTO 28011KT 250V310 9999 NCD 13/07 Q1032
  • 220950Z AUTO 29012KT 9999 NCD 14/07 Q1032

TAF TAF EGPF
Valid from the 22 at 12:00 until the 23 at 12:00 UTC


221059Z 2212/2312 29010KT 9999 FEW030
ATIS : +44 141 887 7449
No reported NOTAMs for that airfield.



MET'MAP, your aeronautical weather chart ! - Copyright ORBIFLY December 2007 - Disclaimer

ORBIFLY MET'MAP TEAM :

Programming & Development : Alexandra Zaïnal
Concept & Development : Baudouin d'Aumeries
Co-Development & Prog : Marc-Olivier Méhu
Technical & hardware support : Manuel Goepfert

Contact : metmap@orbifly.com




SOURCES & CREDITS :

   NOAA